createdAt,value
2023-09-08T00:00:35.577Z,5.35
2023-09-08T00:03:04.040Z,6.07
2023-09-08T00:05:31.489Z,5.78
2023-09-08T00:07:58.886Z,5.72
2023-09-08T00:10:26.270Z,5.10
2023-09-08T00:12:53.638Z,5.78
2023-09-08T00:15:20.978Z,6.18
2023-09-08T00:17:48.575Z,5.50
2023-09-08T00:20:16.412Z,5.68
2023-09-08T00:22:43.825Z,6.15
2023-09-08T00:25:11.241Z,6.57
2023-09-08T00:27:38.732Z,6.95
2023-09-08T00:30:07.159Z,6.68
2023-09-08T00:32:34.738Z,6.95
2023-09-08T00:35:02.236Z,6.47
2023-09-08T00:37:29.640Z,7.32
2023-09-08T00:39:56.969Z,6.53
2023-09-08T00:42:24.391Z,6.70
2023-09-08T00:44:51.819Z,6.88
2023-09-08T00:47:19.442Z,6.32
2023-09-08T00:49:47.480Z,7.22
2023-09-08T00:52:15.314Z,6.95
2023-09-08T00:54:42.841Z,6.70
2023-09-08T00:57:10.912Z,6.80
2023-09-08T00:59:39.188Z,6.65
2023-09-08T01:02:06.549Z,6.32
2023-09-08T01:04:34.944Z,6.93
2023-09-08T01:07:02.994Z,7.07
2023-09-08T01:09:31.415Z,6.85
2023-09-08T01:12:03.158Z,6.45
2023-09-08T01:14:30.828Z,6.90
2023-09-08T01:16:58.222Z,6.72
2023-09-08T01:19:26.014Z,6.15
2023-09-08T01:22:22.730Z,6.35
2023-09-08T01:25:22.853Z,7.25
2023-09-08T01:27:53.846Z,6.38
2023-09-08T01:30:24.136Z,7.90
2023-09-08T01:32:52.723Z,7.38
2023-09-08T01:35:20.251Z,6.25
2023-09-08T01:37:49.315Z,6.85
2023-09-08T01:40:17.323Z,6.50
2023-09-08T01:42:46.576Z,7.07
2023-09-08T01:45:13.974Z,6.60
2023-09-08T01:47:41.415Z,6.72
2023-09-08T01:50:09.237Z,7.55
2023-09-08T01:52:38.299Z,7.70
2023-09-08T01:55:06.365Z,6.05
2023-09-08T01:57:33.733Z,6.85
2023-09-08T02:00:01.443Z,7.45
2023-09-08T02:02:28.958Z,8.85
2023-09-08T02:04:56.484Z,10.68
2023-09-08T02:07:23.968Z,9.40
2023-09-08T02:09:52.618Z,9.00
2023-09-08T02:12:21.997Z,10.43
2023-09-08T02:14:49.629Z,9.30
2023-09-08T02:17:17.135Z,11.02
2023-09-08T02:19:46.017Z,10.82
2023-09-08T02:22:13.395Z,10.60
2023-09-08T02:24:40.864Z,10.13
2023-09-08T02:27:08.295Z,9.30
2023-09-08T02:29:36.418Z,9.63
2023-09-08T02:32:04.300Z,9.93
2023-09-08T02:34:34.715Z,9.77
2023-09-08T02:37:02.152Z,9.40
2023-09-08T02:39:29.747Z,9.02
2023-09-08T02:41:57.334Z,8.82
2023-09-08T02:44:24.871Z,9.00
2023-09-08T02:46:53.118Z,8.57
2023-09-08T02:49:20.509Z,8.30
2023-09-08T02:51:48.060Z,8.63
2023-09-08T02:54:15.479Z,9.18
2023-09-08T02:56:42.928Z,8.70
2023-09-08T02:59:10.997Z,7.72
2023-09-08T03:01:38.713Z,8.57
2023-09-08T03:04:06.389Z,9.10
2023-09-08T03:06:35.419Z,8.93
2023-09-08T03:09:02.897Z,8.23
2023-09-08T03:11:30.767Z,9.10
2023-09-08T03:13:58.205Z,8.60
2023-09-08T03:16:25.621Z,8.05
2023-09-08T03:18:53.088Z,7.30
2023-09-08T03:21:20.657Z,8.50
2023-09-08T03:23:48.143Z,7.93
2023-09-08T03:26:15.556Z,7.53
2023-09-08T03:28:43.628Z,7.85
2023-09-08T03:31:11.288Z,7.53
2023-09-08T03:33:38.883Z,7.22
2023-09-08T03:36:08.649Z,7.07
2023-09-08T03:38:38.240Z,6.47
2023-09-08T03:41:07.187Z,7.50
2023-09-08T03:43:35.051Z,7.40
2023-09-08T03:46:03.593Z,7.28
2023-09-08T03:48:31.120Z,7.18
2023-09-08T03:51:00.010Z,7.40
2023-09-08T03:53:28.539Z,7.05
2023-09-08T03:55:56.008Z,7.38
2023-09-08T03:58:23.415Z,7.65
2023-09-08T04:00:50.855Z,7.65
2023-09-08T04:03:18.286Z,7.35
2023-09-08T04:05:45.779Z,7.93
2023-09-08T04:08:13.236Z,7.95
2023-09-08T04:10:40.634Z,7.75
2023-09-08T04:13:08.002Z,7.88
2023-09-08T04:15:35.465Z,7.10
2023-09-08T04:18:03.331Z,6.55
2023-09-08T04:20:31.550Z,7.22
2023-09-08T04:22:58.908Z,8.02
2023-09-08T04:25:26.348Z,7.82
2023-09-08T04:27:53.743Z,6.60
2023-09-08T04:30:21.333Z,7.05
2023-09-08T04:32:48.900Z,7.18
2023-09-08T04:35:16.352Z,7.88
2023-09-08T04:37:43.858Z,6.80
2023-09-08T04:40:11.473Z,7.15
2023-09-08T04:42:38.877Z,6.78
2023-09-08T04:45:08.135Z,7.47
2023-09-08T04:47:36.784Z,7.57
2023-09-08T04:50:04.832Z,7.63
2023-09-08T04:52:32.258Z,7.43
2023-09-08T04:55:01.100Z,7.15
2023-09-08T04:57:30.098Z,6.55
2023-09-08T04:59:59.668Z,6.65
2023-09-08T05:02:27.220Z,7.10
2023-09-08T05:04:54.819Z,7.43
2023-09-08T05:07:22.598Z,6.65
2023-09-08T05:09:50.777Z,7.00
2023-09-08T05:12:18.465Z,7.25
2023-09-08T05:14:46.565Z,7.18
2023-09-08T05:17:14.179Z,6.57
2023-09-08T05:19:41.757Z,7.13
2023-09-08T05:22:09.238Z,6.75
2023-09-08T05:24:37.147Z,6.95
2023-09-08T05:27:05.399Z,6.90
2023-09-08T05:29:34.904Z,7.10
2023-09-08T05:32:02.279Z,7.38
2023-09-08T05:34:29.674Z,7.55
2023-09-08T05:36:57.241Z,7.40
2023-09-08T05:39:24.698Z,6.35
2023-09-08T05:41:52.102Z,7.25
2023-09-08T05:44:20.971Z,5.93
2023-09-08T05:46:48.646Z,6.60
2023-09-08T05:49:16.530Z,6.47
2023-09-08T05:51:44.525Z,6.10
2023-09-08T05:54:12.372Z,6.88
2023-09-08T05:56:40.259Z,6.97
2023-09-08T05:59:07.745Z,5.82
2023-09-08T06:01:35.546Z,6.95
2023-09-08T06:04:05.348Z,6.35
2023-09-08T06:06:34.341Z,6.25
2023-09-08T06:09:01.707Z,6.40
2023-09-08T06:11:29.467Z,6.88
2023-09-08T06:14:00.732Z,6.78
2023-09-08T06:16:32.606Z,6.28
2023-09-08T06:19:01.674Z,6.95
2023-09-08T06:21:29.303Z,7.05
2023-09-08T06:23:57.335Z,7.28
2023-09-08T06:26:25.137Z,7.28
2023-09-08T06:28:53.005Z,7.00
2023-09-08T06:31:20.777Z,6.57
2023-09-08T06:33:49.070Z,7.15
2023-09-08T06:36:16.726Z,6.60
2023-09-08T06:38:44.306Z,5.85
2023-09-08T06:41:13.355Z,6.15
2023-09-08T06:43:42.058Z,6.40
2023-09-08T06:46:18.384Z,5.93
2023-09-08T06:48:46.364Z,5.90
2023-09-08T06:51:14.223Z,6.05
2023-09-08T06:53:44.725Z,6.22
2023-09-08T06:56:12.568Z,6.72
2023-09-08T06:58:40.051Z,7.38
2023-09-08T07:01:07.594Z,7.28
2023-09-08T07:03:38.681Z,6.10
2023-09-08T07:06:09.583Z,5.40
2023-09-08T07:08:37.919Z,4.82
2023-09-08T07:11:05.658Z,4.38
2023-09-08T07:13:33.276Z,4.95
2023-09-08T07:16:00.940Z,4.70
2023-09-08T07:18:29.676Z,3.95
2023-09-08T07:20:57.473Z,4.60
2023-09-08T07:23:25.168Z,4.30
2023-09-08T07:25:52.803Z,4.38
2023-09-08T07:28:26.170Z,4.50
2023-09-08T07:30:55.039Z,4.32
2023-09-08T07:33:23.849Z,4.32
2023-09-08T07:35:52.033Z,4.90
2023-09-08T07:38:19.451Z,4.25
2023-09-08T07:40:46.834Z,3.97
2023-09-08T07:43:14.388Z,4.55
2023-09-08T07:45:42.565Z,4.35
2023-09-08T07:48:10.058Z,4.72
2023-09-08T07:50:37.767Z,4.88
2023-09-08T07:53:06.290Z,4.63
2023-09-08T07:55:33.622Z,4.35
2023-09-08T07:58:04.597Z,4.70
2023-09-08T08:00:32.135Z,4.38
2023-09-08T08:03:00.170Z,3.88
2023-09-08T08:05:27.625Z,4.63
2023-09-08T08:07:55.146Z,4.80
2023-09-08T08:10:22.491Z,4.82
2023-09-08T08:12:50.460Z,4.35
2023-09-08T08:15:20.338Z,4.63
2023-09-08T08:17:48.326Z,4.43
2023-09-08T08:20:19.434Z,3.78
2023-09-08T08:22:47.512Z,4.57
2023-09-08T08:25:15.224Z,4.45
2023-09-08T08:27:43.141Z,4.32
2023-09-08T08:30:12.694Z,4.00
2023-09-08T08:32:40.243Z,3.85
2023-09-08T08:35:08.422Z,3.80
2023-09-08T08:37:35.824Z,4.10
2023-09-08T08:40:04.684Z,4.10
2023-09-08T08:42:35.205Z,3.83
2023-09-08T08:45:04.382Z,4.57
2023-09-08T08:47:32.432Z,3.83
2023-09-08T08:50:01.538Z,3.80
2023-09-08T08:52:29.940Z,4.47
2023-09-08T08:54:57.584Z,3.60
2023-09-08T08:57:28.832Z,4.00
2023-09-08T08:59:56.565Z,3.75
2023-09-08T09:02:28.130Z,4.32
2023-09-08T09:07:23.039Z,3.65
2023-09-08T09:09:50.590Z,4.10
2023-09-08T09:12:18.528Z,3.75
2023-09-08T09:14:48.627Z,4.30
2023-09-08T09:17:18.516Z,3.65
2023-09-08T09:19:46.062Z,3.80
2023-09-08T09:22:13.595Z,3.53
2023-09-08T09:24:45.137Z,3.70
2023-09-08T09:27:13.644Z,3.80
2023-09-08T09:29:51.442Z,4.15
2023-09-08T09:32:24.889Z,3.80
2023-09-08T09:34:54.831Z,3.83
2023-09-08T09:37:22.801Z,4.07
2023-09-08T09:39:55.362Z,4.03
2023-09-08T09:42:24.268Z,3.67
2023-09-08T09:44:54.946Z,3.58
2023-09-08T09:47:23.236Z,3.63
2023-09-08T09:49:50.995Z,3.78
2023-09-08T09:52:24.296Z,3.72
2023-09-08T09:54:52.903Z,3.75
2023-09-08T09:57:22.661Z,3.40
2023-09-08T09:59:51.855Z,3.40
2023-09-08T10:02:23.555Z,2.85
2023-09-08T10:04:52.279Z,3.70
2023-09-08T10:07:20.224Z,3.65
2023-09-08T10:09:48.732Z,3.40
2023-09-08T10:12:19.325Z,3.58
2023-09-08T10:14:53.022Z,3.13
2023-09-08T10:17:29.817Z,3.05
2023-09-08T10:20:00.953Z,3.10
2023-09-08T10:22:32.903Z,3.20
2023-09-08T10:25:06.886Z,3.03
2023-09-08T10:27:34.964Z,3.40
2023-09-08T10:30:05.663Z,3.13
2023-09-08T10:32:35.244Z,3.20
2023-09-08T10:35:07.333Z,3.10
2023-09-08T10:37:34.837Z,2.60
2023-09-08T10:40:25.303Z,3.40
2023-09-08T10:43:08.480Z,3.03
2023-09-08T10:45:36.602Z,2.92
2023-09-08T10:48:04.949Z,2.72
2023-09-08T10:50:38.204Z,2.90
2023-09-08T10:53:19.333Z,3.22
2023-09-08T10:58:40.382Z,2.95
2023-09-08T11:01:08.425Z,2.95
2023-09-08T11:03:38.859Z,2.92
2023-09-08T11:06:10.660Z,2.63
2023-09-08T11:08:39.826Z,2.85
2023-09-08T11:11:07.722Z,3.45
2023-09-08T11:13:35.093Z,3.15
2023-09-08T11:16:03.855Z,2.90
2023-09-08T11:18:32.568Z,3.22
2023-09-08T11:21:00.125Z,2.85
2023-09-08T11:23:27.666Z,2.60
2023-09-08T11:25:55.223Z,2.80
2023-09-08T11:28:26.409Z,3.20
2023-09-08T11:30:55.092Z,3.00
2023-09-08T11:33:27.569Z,2.58
2023-09-08T11:35:58.979Z,2.88
2023-09-08T11:38:28.414Z,2.60
2023-09-08T11:40:58.571Z,3.13
2023-09-08T11:43:28.906Z,2.65
2023-09-08T11:45:57.356Z,3.00
2023-09-08T11:48:26.173Z,3.00
2023-09-08T11:50:56.870Z,2.72
2023-09-08T11:53:24.697Z,2.90
2023-09-08T11:55:52.392Z,2.90
2023-09-08T11:58:20.867Z,3.00
2023-09-08T12:00:51.081Z,2.70
2023-09-08T12:03:18.637Z,2.72
2023-09-08T12:05:52.421Z,3.33
2023-09-08T12:08:19.953Z,2.53
2023-09-08T12:10:47.419Z,2.65
2023-09-08T12:13:21.948Z,2.80
2023-09-08T12:15:49.525Z,2.50
2023-09-08T12:18:17.221Z,3.20
2023-09-08T12:20:45.433Z,2.60
2023-09-08T12:23:21.342Z,2.90
2023-09-08T12:25:53.280Z,2.78
2023-09-08T12:28:21.903Z,2.70
2023-09-08T12:30:52.490Z,3.03
2023-09-08T12:33:21.845Z,2.73
2023-09-08T12:35:52.227Z,3.28
2023-09-08T12:38:20.272Z,2.70
2023-09-08T12:40:47.640Z,2.78
2023-09-08T12:43:27.238Z,2.95
2023-09-08T12:45:57.486Z,3.03
2023-09-08T12:48:25.985Z,2.72
2023-09-08T12:50:53.592Z,3.00
2023-09-08T12:53:21.835Z,2.95
2023-09-08T12:55:49.471Z,3.30
2023-09-08T12:58:17.947Z,3.03
2023-09-08T13:00:45.556Z,2.83
2023-09-08T13:03:13.154Z,2.70
2023-09-08T13:05:41.037Z,3.10
2023-09-08T13:08:08.614Z,2.88
2023-09-08T13:10:36.034Z,2.92
2023-09-08T13:13:03.560Z,3.00
2023-09-08T13:15:31.343Z,2.90
2023-09-08T13:17:58.724Z,2.80
2023-09-08T13:20:26.235Z,2.25
2023-09-08T13:22:53.716Z,2.60
2023-09-08T13:25:21.241Z,2.63
2023-09-08T13:27:49.255Z,3.03
2023-09-08T13:30:17.347Z,2.53
2023-09-08T13:32:45.982Z,3.30
2023-09-08T13:35:13.600Z,3.05
2023-09-08T13:37:41.220Z,2.58
2023-09-08T13:40:09.849Z,2.83
2023-09-08T13:42:38.013Z,3.30
2023-09-08T13:45:06.270Z,3.00
2023-09-08T13:47:34.646Z,2.85
2023-09-08T13:50:05.700Z,2.97
2023-09-08T13:52:37.951Z,3.17
2023-09-08T13:57:41.710Z,3.00
2023-09-08T14:00:15.742Z,2.92
2023-09-08T14:02:44.563Z,2.33
2023-09-08T14:05:18.640Z,2.72
2023-09-08T14:07:55.253Z,2.80
2023-09-08T14:12:55.422Z,2.75
2023-09-08T14:15:23.169Z,2.70
2023-09-08T14:17:51.212Z,3.13
2023-09-08T14:20:18.649Z,2.90
2023-09-08T14:22:46.170Z,3.15
2023-09-08T14:25:14.390Z,2.80
2023-09-08T14:27:42.070Z,2.90
2023-09-08T14:30:09.651Z,2.83
2023-09-08T14:32:37.153Z,2.75
2023-09-08T14:35:05.297Z,2.92
2023-09-08T14:37:32.820Z,2.70
2023-09-08T14:40:00.273Z,2.53
2023-09-08T14:42:27.691Z,3.13
2023-09-08T14:44:55.310Z,2.72
2023-09-08T14:47:22.910Z,2.72
2023-09-08T14:49:50.393Z,2.83
2023-09-08T14:52:21.791Z,3.00
2023-09-08T14:54:49.356Z,2.93
2023-09-08T14:57:16.987Z,2.40
2023-09-08T14:59:44.437Z,2.42
2023-09-08T15:02:12.163Z,2.38
2023-09-08T15:04:39.630Z,2.38
2023-09-08T15:07:07.020Z,3.00
2023-09-08T15:09:34.778Z,2.83
2023-09-08T15:12:02.295Z,2.70
2023-09-08T15:14:29.711Z,2.70
2023-09-08T15:16:57.078Z,3.03
2023-09-08T15:19:24.676Z,2.47
2023-09-08T15:21:52.009Z,2.80
2023-09-08T15:24:19.422Z,2.92
2023-09-08T15:26:47.294Z,3.33
2023-09-08T15:29:15.803Z,2.97
2023-09-08T15:31:44.119Z,3.15
2023-09-08T15:34:12.797Z,2.88
2023-09-08T15:36:40.150Z,2.97
2023-09-08T15:39:07.545Z,2.83
2023-09-08T15:41:34.919Z,2.75
2023-09-08T15:44:02.324Z,2.80
2023-09-08T15:46:29.986Z,2.92
2023-09-08T15:48:57.655Z,2.92
2023-09-08T15:51:25.155Z,3.03
2023-09-08T15:53:52.577Z,3.10
2023-09-08T15:56:19.961Z,2.80
2023-09-08T15:58:47.470Z,2.90
2023-09-08T16:01:15.134Z,2.95
2023-09-08T16:03:42.953Z,2.42
2023-09-08T16:06:11.345Z,2.88
2023-09-08T16:08:38.743Z,2.63
2023-09-08T16:11:06.369Z,3.10
2023-09-08T16:13:34.047Z,3.00
2023-09-08T16:16:01.741Z,3.00
2023-09-08T16:18:29.240Z,2.70
2023-09-08T16:20:56.690Z,2.78
2023-09-08T16:23:24.131Z,2.85
2023-09-08T16:25:51.556Z,2.75
2023-09-08T16:28:18.954Z,2.92
2023-09-08T16:30:46.438Z,3.15
2023-09-08T16:33:15.723Z,2.70
2023-09-08T16:35:43.425Z,2.25
2023-09-08T16:38:13.214Z,3.05
2023-09-08T16:40:40.800Z,2.70
2023-09-08T16:43:08.259Z,2.40
2023-09-08T16:45:35.604Z,2.60
2023-09-08T16:48:03.113Z,2.50
2023-09-08T16:50:30.461Z,2.83
2023-09-08T16:52:57.915Z,2.90
2023-09-08T16:55:25.438Z,2.17
2023-09-08T16:57:52.928Z,2.88
2023-09-08T17:00:20.364Z,3.10
2023-09-08T17:02:47.851Z,2.30
2023-09-08T17:05:17.198Z,2.80
2023-09-08T17:07:44.996Z,3.05
2023-09-08T17:10:12.617Z,2.60
2023-09-08T17:12:40.889Z,2.85
2023-09-08T17:15:09.294Z,3.00
2023-09-08T17:17:36.797Z,3.13
2023-09-08T17:20:04.814Z,3.53
2023-09-08T17:22:32.309Z,3.35
2023-09-08T17:24:59.766Z,3.63
2023-09-08T17:27:27.353Z,2.83
2023-09-08T17:29:54.766Z,3.13
2023-09-08T17:32:22.215Z,3.20
2023-09-08T17:34:50.312Z,2.72
2023-09-08T17:37:17.811Z,3.65
2023-09-08T17:39:45.212Z,3.17
2023-09-08T17:42:12.573Z,3.20
2023-09-08T17:44:40.312Z,2.80
2023-09-08T17:47:07.820Z,2.92
2023-09-08T17:49:38.339Z,2.75
2023-09-08T17:52:06.266Z,3.10
2023-09-08T17:54:33.758Z,4.07
2023-09-08T17:57:01.261Z,3.42
2023-09-08T17:59:28.847Z,2.88
2023-09-08T18:01:56.318Z,2.92
2023-09-08T18:04:23.854Z,3.20
2023-09-08T18:06:51.572Z,3.22
2023-09-08T18:09:19.087Z,2.92
2023-09-08T18:11:46.605Z,3.50
2023-09-08T18:14:14.088Z,3.45
2023-09-08T18:16:41.557Z,3.25
2023-09-08T18:19:09.235Z,3.22
2023-09-08T18:21:37.595Z,3.50
2023-09-08T18:24:05.385Z,3.05
2023-09-08T18:26:32.797Z,3.38
2023-09-08T18:29:00.249Z,3.22
2023-09-08T18:31:30.276Z,3.40
2023-09-08T18:33:59.178Z,3.20
2023-09-08T18:36:30.464Z,4.00
2023-09-08T18:38:57.947Z,3.60
2023-09-08T18:41:25.471Z,3.50
2023-09-08T18:43:52.924Z,4.10
2023-09-08T18:46:20.666Z,4.18
2023-09-08T18:48:49.256Z,4.05
2023-09-08T18:51:16.945Z,4.10
2023-09-08T18:53:44.394Z,4.13
2023-09-08T18:56:11.766Z,3.70
2023-09-08T18:58:39.204Z,3.95
2023-09-08T19:01:07.757Z,4.50
2023-09-08T19:03:35.676Z,4.10
2023-09-08T19:06:03.361Z,4.22
2023-09-08T19:08:32.915Z,4.15
2023-09-08T19:11:01.295Z,4.40
2023-09-08T19:13:28.700Z,4.70
2023-09-08T19:15:56.229Z,4.43
2023-09-08T19:18:23.651Z,4.57
2023-09-08T19:20:51.070Z,4.03
2023-09-08T19:23:18.414Z,4.10
2023-09-08T19:25:45.819Z,4.28
2023-09-08T19:28:13.186Z,4.03
2023-09-08T19:30:46.124Z,4.13
2023-09-08T19:33:13.588Z,3.83
2023-09-08T19:35:42.571Z,4.38
2023-09-08T19:38:09.983Z,3.92
2023-09-08T19:40:37.418Z,4.60
2023-09-08T19:43:05.114Z,4.57
2023-09-08T19:45:32.842Z,4.40
2023-09-08T19:48:00.409Z,5.25
2023-09-08T19:50:28.155Z,5.35
2023-09-08T19:52:55.481Z,5.47
2023-09-08T19:55:22.962Z,6.03
2023-09-08T19:57:52.773Z,6.40
2023-09-08T20:00:20.220Z,4.82
2023-09-08T20:02:47.731Z,4.53
2023-09-08T20:05:15.268Z,4.90
2023-09-08T20:07:44.295Z,4.95
2023-09-08T20:10:12.672Z,5.15
2023-09-08T20:12:42.628Z,5.20
2023-09-08T20:15:10.691Z,5.30
2023-09-08T20:17:38.320Z,4.85
2023-09-08T20:20:07.210Z,5.38
2023-09-08T20:22:34.680Z,4.82
2023-09-08T20:25:02.020Z,4.97
2023-09-08T20:27:30.317Z,5.13
2023-09-08T20:29:57.740Z,4.85
2023-09-08T20:32:25.213Z,5.15
2023-09-08T20:34:52.554Z,4.57
2023-09-08T20:37:19.932Z,4.95
2023-09-08T20:39:47.446Z,5.15
2023-09-08T20:42:14.812Z,4.60
2023-09-08T20:44:42.218Z,5.10
2023-09-08T20:47:09.552Z,4.95
2023-09-08T20:49:36.925Z,4.88
2023-09-08T20:52:04.876Z,4.78
2023-09-08T20:54:34.400Z,4.97
2023-09-08T20:57:01.755Z,5.28
2023-09-08T20:59:30.041Z,4.85
2023-09-08T21:01:57.486Z,4.85
2023-09-08T21:04:24.983Z,4.55
2023-09-08T21:06:53.086Z,5.28
2023-09-08T21:09:20.970Z,4.78
2023-09-08T21:11:49.390Z,5.32
2023-09-08T21:14:16.808Z,5.97
2023-09-08T21:16:44.181Z,6.18
2023-09-08T21:19:11.580Z,6.57
2023-09-08T21:21:39.024Z,6.80
2023-09-08T21:24:06.761Z,6.72
2023-09-08T21:26:34.178Z,6.55
2023-09-08T21:29:01.605Z,6.80
2023-09-08T21:31:29.032Z,6.95
2023-09-08T21:33:56.477Z,6.05
2023-09-08T21:36:23.942Z,6.18
2023-09-08T21:38:51.323Z,6.18
2023-09-08T21:41:18.929Z,6.18
2023-09-08T21:43:46.254Z,6.75
2023-09-08T21:46:13.915Z,6.32
2023-09-08T21:48:41.449Z,5.88
2023-09-08T21:51:10.053Z,7.18
2023-09-08T21:53:37.752Z,6.47
2023-09-08T21:56:05.436Z,5.55
2023-09-08T21:58:32.823Z,6.00
2023-09-08T22:01:00.213Z,5.68
2023-09-08T22:03:27.975Z,6.03
2023-09-08T22:05:55.569Z,5.72
2023-09-08T22:08:23.302Z,6.10
2023-09-08T22:10:50.729Z,6.28
2023-09-08T22:13:18.187Z,6.18
2023-09-08T22:15:45.790Z,6.15
2023-09-08T22:18:13.640Z,5.80
2023-09-08T22:20:42.444Z,5.45
2023-09-08T22:23:12.195Z,6.82
2023-09-08T22:25:39.749Z,5.88
2023-09-08T22:28:07.757Z,5.50
2023-09-08T22:30:35.167Z,5.85
2023-09-08T22:33:02.806Z,5.80
2023-09-08T22:35:30.865Z,6.40
2023-09-08T22:37:59.230Z,5.95
2023-09-08T22:40:26.776Z,6.40
2023-09-08T22:42:55.564Z,6.55
2023-09-08T22:45:23.640Z,6.35
2023-09-08T22:47:51.065Z,5.97
2023-09-08T22:50:19.272Z,6.07
2023-09-08T22:52:46.647Z,6.05
2023-09-08T22:55:24.965Z,7.22
2023-09-08T22:57:54.844Z,5.90
2023-09-08T23:00:23.409Z,6.82
2023-09-08T23:02:51.019Z,6.35
2023-09-08T23:05:18.555Z,6.38
2023-09-08T23:07:46.029Z,6.40
2023-09-08T23:10:13.723Z,6.60
2023-09-08T23:12:41.549Z,6.38
2023-09-08T23:15:10.986Z,5.85
2023-09-08T23:17:39.092Z,5.97
2023-09-08T23:20:25.331Z,7.45
2023-09-08T23:22:52.700Z,6.25
2023-09-08T23:25:20.119Z,6.55
2023-09-08T23:27:47.529Z,6.57
2023-09-08T23:30:14.860Z,6.65
2023-09-08T23:32:45.654Z,6.85
2023-09-08T23:35:13.544Z,6.55
2023-09-08T23:37:41.154Z,6.05
2023-09-08T23:40:11.006Z,6.65
2023-09-08T23:42:38.953Z,6.53
2023-09-08T23:45:07.001Z,6.35
2023-09-08T23:47:34.775Z,6.30
2023-09-08T23:50:02.261Z,6.50
2023-09-08T23:52:30.056Z,5.97
2023-09-08T23:54:57.446Z,6.85
2023-09-08T23:57:24.890Z,7.38
2023-09-08T23:59:52.393Z,6.88
